createdAt,value
2022-09-23T00:01:10.031Z,6.82
2022-09-23T00:03:39.157Z,6.60
2022-09-23T00:06:11.109Z,6.50
2022-09-23T00:08:39.139Z,5.55
2022-09-23T00:11:08.740Z,6.28
2022-09-23T00:13:36.910Z,5.53
2022-09-23T00:16:09.097Z,7.43
2022-09-23T00:18:35.980Z,5.78
2022-09-23T00:21:06.797Z,4.78
2022-09-23T00:23:33.838Z,5.03
2022-09-23T00:26:03.284Z,4.88
2022-09-23T00:28:31.312Z,6.25
2022-09-23T00:31:03.330Z,6.65
2022-09-23T00:33:30.166Z,6.97
2022-09-23T00:36:04.663Z,6.18
2022-09-23T00:38:31.948Z,6.82
2022-09-23T00:40:58.693Z,6.05
2022-09-23T00:43:50.020Z,8.60
2022-09-23T00:46:28.857Z,6.07
2022-09-23T00:49:20.874Z,6.65
2022-09-23T00:51:57.499Z,8.35
2022-09-23T00:54:27.358Z,6.97
2022-09-23T00:56:56.219Z,7.90
2022-09-23T00:59:24.442Z,7.57
2022-09-23T01:01:54.856Z,8.25
2022-09-23T01:04:24.596Z,6.15
2022-09-23T01:06:51.355Z,6.13
2022-09-23T01:09:18.783Z,7.47
2022-09-23T01:12:02.111Z,7.25
2022-09-23T01:14:52.903Z,6.00
2022-09-23T01:17:36.557Z,8.90
2022-09-23T01:20:45.097Z,6.10
2022-09-23T01:23:33.861Z,9.23
2022-09-23T01:26:20.272Z,6.28
2022-09-23T01:29:25.596Z,5.78
2022-09-23T01:32:16.387Z,5.70
2022-09-23T01:35:01.475Z,6.85
2022-09-23T01:37:39.095Z,7.72
2022-09-23T01:40:21.321Z,6.30
2022-09-23T01:42:52.887Z,8.15
2022-09-23T01:45:38.864Z,4.82
2022-09-23T01:48:31.261Z,6.03
2022-09-23T01:51:22.337Z,9.05
2022-09-23T01:54:12.575Z,6.88
2022-09-23T01:56:46.187Z,5.95
2022-09-23T01:59:26.573Z,5.55
2022-09-23T02:02:18.757Z,6.20
2022-09-23T02:04:51.589Z,7.10
2022-09-23T02:07:29.166Z,5.85
2022-09-23T02:10:12.849Z,9.70
2022-09-23T02:12:42.160Z,7.32
2022-09-23T02:15:16.875Z,8.57
2022-09-23T02:17:53.331Z,6.65
2022-09-23T02:20:27.045Z,8.40
2022-09-23T02:23:03.135Z,8.48
2022-09-23T02:25:45.156Z,16.73
2022-09-23T02:28:31.792Z,12.80
2022-09-23T02:31:10.860Z,8.73
2022-09-23T02:34:02.271Z,6.82
2022-09-23T02:36:53.210Z,8.18
2022-09-23T02:39:22.822Z,6.18
2022-09-23T02:42:10.101Z,7.57
2022-09-23T02:44:37.013Z,6.53
2022-09-23T02:47:03.962Z,6.57
2022-09-23T02:49:32.479Z,8.10
2022-09-23T02:52:04.666Z,6.15
2022-09-23T02:54:33.618Z,6.75
2022-09-23T02:57:02.766Z,7.20
2022-09-23T02:59:30.632Z,6.32
2022-09-23T03:02:34.857Z,7.55
2022-09-23T03:05:05.183Z,7.60
2022-09-23T03:07:44.087Z,9.63
2022-09-23T03:10:23.845Z,6.28
2022-09-23T03:13:29.394Z,7.68
2022-09-23T03:16:27.839Z,7.38
2022-09-23T03:19:03.119Z,6.68
2022-09-23T03:21:38.770Z,8.32
2022-09-23T03:24:09.029Z,6.55
2022-09-23T03:26:39.097Z,7.65
2022-09-23T03:29:11.457Z,5.90
2022-09-23T03:31:41.340Z,5.78
2022-09-23T03:34:16.210Z,8.75
2022-09-23T03:37:00.579Z,7.45
2022-09-23T03:39:41.711Z,6.65
2022-09-23T03:42:21.691Z,6.28
2022-09-23T03:44:51.491Z,6.75
2022-09-23T03:47:18.932Z,5.40
2022-09-23T03:49:50.541Z,5.65
2022-09-23T03:52:19.681Z,6.15
2022-09-23T03:54:46.443Z,7.35
2022-09-23T03:57:14.166Z,6.03
2022-09-23T03:59:41.495Z,6.90
2022-09-23T04:02:09.150Z,7.88
2022-09-23T04:04:37.393Z,8.45
2022-09-23T04:07:04.578Z,10.07
2022-09-23T04:09:31.673Z,11.05
2022-09-23T04:11:58.443Z,7.18
2022-09-23T04:14:25.334Z,6.88
2022-09-23T04:16:52.239Z,7.97
2022-09-23T04:19:19.156Z,9.95
2022-09-23T04:21:46.582Z,9.43
2022-09-23T04:24:14.714Z,8.63
2022-09-23T04:26:42.284Z,7.07
2022-09-23T04:29:11.574Z,6.82
2022-09-23T04:31:38.538Z,6.05
2022-09-23T04:34:05.283Z,6.18
2022-09-23T04:36:32.025Z,6.35
2022-09-23T04:38:58.778Z,5.97
2022-09-23T04:41:25.576Z,7.00
2022-09-23T04:43:52.808Z,6.45
2022-09-23T04:46:19.652Z,5.97
2022-09-23T04:48:46.635Z,6.03
2022-09-23T04:51:15.875Z,8.90
2022-09-23T04:53:45.016Z,8.95
2022-09-23T04:56:17.999Z,7.05
2022-09-23T04:58:46.057Z,6.72
2022-09-23T05:01:17.149Z,7.90
2022-09-23T05:03:45.375Z,6.63
2022-09-23T05:06:14.215Z,7.25
2022-09-23T05:08:42.622Z,6.60
2022-09-23T05:11:09.400Z,8.65
2022-09-23T05:13:36.205Z,7.30
2022-09-23T05:16:06.183Z,9.00
2022-09-23T05:18:35.070Z,6.03
2022-09-23T05:21:03.112Z,8.05
2022-09-23T05:23:30.337Z,9.50
2022-09-23T05:26:00.991Z,6.00
2022-09-23T05:28:32.814Z,5.97
2022-09-23T05:31:04.898Z,7.40
2022-09-23T05:33:33.160Z,7.10
2022-09-23T05:36:00.867Z,5.38
2022-09-23T05:38:29.207Z,8.00
2022-09-23T05:41:00.913Z,5.85
2022-09-23T05:43:28.159Z,6.85
2022-09-23T05:46:11.071Z,5.50
2022-09-23T05:48:39.181Z,4.90
2022-09-23T05:51:10.862Z,8.00
2022-09-23T05:53:38.117Z,5.82
2022-09-23T05:56:06.175Z,6.35
2022-09-23T05:58:33.100Z,4.45
2022-09-23T06:00:59.851Z,5.95
2022-09-23T06:03:26.709Z,4.18
2022-09-23T06:05:54.980Z,4.13
2022-09-23T06:08:23.421Z,7.25
2022-09-23T06:10:54.306Z,4.30
2022-09-23T06:13:21.578Z,5.10
2022-09-23T06:15:48.444Z,6.63
2022-09-23T06:18:15.336Z,4.20
2022-09-23T06:20:42.120Z,5.53
2022-09-23T06:23:11.076Z,6.57
2022-09-23T06:25:41.426Z,4.30
2022-09-23T06:28:12.495Z,5.72
2022-09-23T06:30:42.678Z,7.43
2022-09-23T06:33:10.085Z,4.95
2022-09-23T06:35:37.139Z,4.82
2022-09-23T06:38:05.206Z,5.80
2022-09-23T06:40:32.569Z,4.07
2022-09-23T06:43:01.129Z,6.50
2022-09-23T06:45:28.893Z,5.10
2022-09-23T06:47:57.785Z,3.60
2022-09-23T06:50:26.324Z,4.43
2022-09-23T06:52:56.616Z,6.15
2022-09-23T06:55:24.785Z,4.53
2022-09-23T06:57:51.655Z,4.18
2022-09-23T07:00:18.646Z,3.30
2022-09-23T07:02:46.048Z,3.25
2022-09-23T07:05:13.534Z,4.63
2022-09-23T07:07:41.300Z,3.78
2022-09-23T07:10:08.367Z,5.05
2022-09-23T07:12:35.202Z,7.20
2022-09-23T07:15:02.034Z,2.65
2022-09-23T07:17:28.851Z,6.43
2022-09-23T07:19:55.973Z,3.22
2022-09-23T07:22:24.341Z,5.15
2022-09-23T07:24:51.616Z,5.65
2022-09-23T07:27:19.960Z,4.13
2022-09-23T07:29:48.998Z,3.90
2022-09-23T07:32:16.642Z,3.38
2022-09-23T07:34:44.366Z,5.63
2022-09-23T07:37:11.102Z,6.25
2022-09-23T07:39:39.715Z,5.45
2022-09-23T07:42:06.629Z,4.35
2022-09-23T07:44:34.030Z,3.97
2022-09-23T07:47:01.776Z,5.15
2022-09-23T07:49:28.750Z,6.70
2022-09-23T07:51:55.576Z,5.00
2022-09-23T07:54:24.336Z,8.52
2022-09-23T07:56:51.180Z,6.68
2022-09-23T07:59:18.564Z,4.72
2022-09-23T08:01:48.338Z,5.38
2022-09-23T08:04:20.392Z,5.32
2022-09-23T08:06:51.113Z,5.20
2022-09-23T08:09:20.221Z,6.53
2022-09-23T08:11:47.714Z,5.63
2022-09-23T08:14:15.442Z,5.53
2022-09-23T08:16:42.799Z,8.38
2022-09-23T08:19:09.749Z,10.00
2022-09-23T08:21:39.175Z,7.90
2022-09-23T08:24:13.117Z,8.32
2022-09-23T08:26:40.032Z,10.15
2022-09-23T08:29:09.805Z,11.95
2022-09-23T08:31:36.603Z,9.27
2022-09-23T08:34:03.595Z,7.32
2022-09-23T08:36:31.592Z,8.00
2022-09-23T08:38:58.350Z,6.65
2022-09-23T08:41:48.095Z,11.02
2022-09-23T08:44:37.543Z,7.50
2022-09-23T08:47:28.091Z,8.73
2022-09-23T08:50:05.602Z,6.97
2022-09-23T08:52:49.491Z,8.05
2022-09-23T08:55:16.966Z,6.90
2022-09-23T09:01:07.920Z,6.97
2022-09-23T09:03:40.653Z,9.77
2022-09-23T09:06:51.704Z,6.35
2022-09-23T09:09:30.537Z,7.45
2022-09-23T09:12:07.210Z,7.43
2022-09-23T09:14:57.818Z,5.13
2022-09-23T09:18:03.896Z,8.43
2022-09-23T09:20:48.942Z,5.93
2022-09-23T09:23:27.553Z,5.25
2022-09-23T09:25:57.132Z,8.73
2022-09-23T09:28:40.619Z,7.00
2022-09-23T09:31:28.484Z,4.50
2022-09-23T09:33:59.795Z,6.22
2022-09-23T09:36:49.703Z,8.07
2022-09-23T09:39:17.262Z,6.68
2022-09-23T09:41:49.765Z,9.43
2022-09-23T09:44:41.755Z,5.40
2022-09-23T09:47:28.420Z,4.80
2022-09-23T09:50:06.565Z,8.73
2022-09-23T09:52:33.504Z,6.47
2022-09-23T09:55:12.261Z,7.30
2022-09-23T09:57:55.867Z,8.93
2022-09-23T10:00:26.349Z,5.53
2022-09-23T10:03:01.278Z,4.95
2022-09-23T10:05:34.876Z,5.00
2022-09-23T10:08:35.031Z,5.53
2022-09-23T10:11:04.651Z,5.88
2022-09-23T10:13:32.018Z,5.03
2022-09-23T10:16:03.943Z,4.97
2022-09-23T10:18:38.225Z,4.60
2022-09-23T10:21:16.764Z,4.55
2022-09-23T10:23:52.718Z,5.55
2022-09-23T10:26:33.902Z,5.05
2022-09-23T10:29:21.687Z,4.10
2022-09-23T10:31:49.194Z,3.53
2022-09-23T10:34:28.807Z,4.18
2022-09-23T10:37:23.779Z,4.55
2022-09-23T10:40:09.399Z,5.28
2022-09-23T10:43:13.863Z,5.90
2022-09-23T10:46:02.989Z,4.22
2022-09-23T10:48:37.190Z,3.83
2022-09-23T10:51:14.388Z,7.05
2022-09-23T10:53:44.030Z,4.13
2022-09-23T10:56:19.682Z,3.67
2022-09-23T10:59:14.619Z,3.80
2022-09-23T11:02:12.749Z,3.72
2022-09-23T11:05:07.346Z,8.45
2022-09-23T11:07:48.218Z,4.00
2022-09-23T11:10:45.887Z,3.95
2022-09-23T11:13:13.240Z,2.55
2022-09-23T11:16:16.034Z,1.92
2022-09-23T11:19:02.377Z,2.83
2022-09-23T11:21:51.736Z,5.40
2022-09-23T11:24:52.011Z,3.35
2022-09-23T11:27:39.859Z,3.42
2022-09-23T11:30:14.115Z,2.45
2022-09-23T11:32:49.339Z,1.42
2022-09-23T11:35:27.063Z,2.22
2022-09-23T11:38:18.783Z,2.22
2022-09-23T11:40:54.558Z,1.67
2022-09-23T11:43:34.372Z,2.15
2022-09-23T11:46:09.538Z,2.00
2022-09-23T11:48:45.121Z,2.83
2022-09-23T11:51:15.008Z,2.13
2022-09-23T11:54:03.365Z,2.55
2022-09-23T11:56:47.958Z,1.15
2022-09-23T11:59:41.913Z,3.85
2022-09-23T12:03:03.017Z,2.20
2022-09-23T12:05:40.135Z,2.63
2022-09-23T12:08:37.054Z,1.52
2022-09-23T12:11:08.491Z,1.98
2022-09-23T12:13:43.364Z,1.77
2022-09-23T12:16:13.129Z,2.03
2022-09-23T12:18:42.911Z,1.45
2022-09-23T12:21:50.205Z,1.80
2022-09-23T12:24:31.346Z,2.38
2022-09-23T12:27:03.478Z,1.00
2022-09-23T12:29:32.326Z,1.92
2022-09-23T12:31:59.655Z,2.22
2022-09-23T12:34:44.139Z,2.95
2022-09-23T12:37:10.955Z,1.98
2022-09-23T12:39:38.764Z,1.58
2022-09-23T12:42:19.660Z,2.00
2022-09-23T12:44:48.708Z,3.85
2022-09-23T12:47:20.930Z,4.80
2022-09-23T12:49:49.557Z,1.80
2022-09-23T12:52:16.661Z,1.85
2022-09-23T12:54:48.389Z,0.85
2022-09-23T12:57:35.087Z,2.35
2022-09-23T13:00:13.777Z,2.58
2022-09-23T13:03:12.760Z,0.85
2022-09-23T13:06:15.321Z,2.03
2022-09-23T13:08:43.232Z,3.13
2022-09-23T13:11:26.183Z,1.52
2022-09-23T13:13:57.555Z,2.70
2022-09-23T13:16:43.729Z,2.25
2022-09-23T13:19:25.990Z,1.85
2022-09-23T13:22:21.690Z,2.40
2022-09-23T13:24:54.355Z,2.42
2022-09-23T13:27:26.582Z,2.05
2022-09-23T13:29:59.548Z,2.88
2022-09-23T13:32:34.378Z,1.75
2022-09-23T13:35:26.459Z,4.15
2022-09-23T13:37:53.499Z,1.65
2022-09-23T13:40:28.956Z,1.85
2022-09-23T13:43:09.535Z,1.42
2022-09-23T13:45:40.020Z,2.60
2022-09-23T13:48:15.183Z,3.10
2022-09-23T13:50:50.844Z,1.50
2022-09-23T13:53:23.829Z,3.55
2022-09-23T13:56:19.874Z,3.45
2022-09-23T13:58:46.716Z,1.73
2022-09-23T14:01:24.299Z,1.45
2022-09-23T14:03:51.495Z,1.42
2022-09-23T14:06:18.509Z,2.60
2022-09-23T14:08:50.149Z,2.15
2022-09-23T14:11:19.232Z,4.07
2022-09-23T14:13:48.269Z,2.53
2022-09-23T14:16:16.082Z,1.40
2022-09-23T14:18:49.436Z,3.30
2022-09-23T14:21:34.718Z,3.83
2022-09-23T14:24:10.480Z,3.55
2022-09-23T14:26:38.239Z,2.35
2022-09-23T14:29:12.625Z,2.15
2022-09-23T14:31:39.900Z,5.20
2022-09-23T14:34:45.058Z,3.88
2022-09-23T14:37:38.190Z,3.72
2022-09-23T14:40:17.013Z,1.52
2022-09-23T14:42:47.896Z,8.35
2022-09-23T14:45:19.553Z,3.47
2022-09-23T14:47:50.830Z,4.07
2022-09-23T14:50:40.375Z,3.28
2022-09-23T14:53:43.249Z,1.70
2022-09-23T14:56:24.669Z,2.33
2022-09-23T14:58:59.895Z,2.28
2022-09-23T15:01:37.092Z,2.10
2022-09-23T15:04:14.656Z,2.08
2022-09-23T15:06:54.612Z,2.53
2022-09-23T15:09:27.724Z,4.88
2022-09-23T15:12:00.738Z,3.53
2022-09-23T15:14:39.093Z,2.58
2022-09-23T15:17:23.648Z,4.10
2022-09-23T15:20:00.670Z,2.95
2022-09-23T15:22:28.064Z,5.45
2022-09-23T15:25:11.463Z,3.40
2022-09-23T15:27:38.303Z,2.45
2022-09-23T15:30:15.791Z,3.75
2022-09-23T15:32:44.097Z,1.98
2022-09-23T15:35:19.928Z,2.53
2022-09-23T15:37:49.225Z,2.85
2022-09-23T15:40:26.240Z,2.75
2022-09-23T15:42:58.770Z,2.53
2022-09-23T15:45:44.445Z,6.13
2022-09-23T15:48:17.763Z,6.47
2022-09-23T15:50:46.619Z,7.28
2022-09-23T15:53:18.038Z,7.63
2022-09-23T15:55:45.445Z,3.33
2022-09-23T15:58:12.282Z,3.60
2022-09-23T16:00:39.239Z,2.92
2022-09-23T16:03:06.700Z,2.78
2022-09-23T16:06:00.575Z,3.22
2022-09-23T16:08:28.329Z,2.25
2022-09-23T16:10:55.741Z,3.08
2022-09-23T16:13:23.025Z,2.88
2022-09-23T16:15:50.043Z,2.65
2022-09-23T16:18:16.916Z,4.75
2022-09-23T16:20:45.578Z,3.53
2022-09-23T16:23:34.698Z,2.80
2022-09-23T16:26:07.919Z,2.58
2022-09-23T16:28:34.845Z,3.92
2022-09-23T16:31:01.654Z,3.95
2022-09-23T16:33:28.820Z,2.65
2022-09-23T16:35:55.752Z,2.47
2022-09-23T16:38:22.555Z,4.00
2022-09-23T16:40:49.401Z,8.93
2022-09-23T16:43:16.383Z,3.75
2022-09-23T16:45:43.361Z,4.38
2022-09-23T16:48:11.245Z,3.55
2022-09-23T16:50:38.001Z,2.50
2022-09-23T16:53:04.824Z,2.72
2022-09-23T16:55:31.589Z,3.95
2022-09-23T16:57:58.306Z,4.53
2022-09-23T17:00:43.648Z,5.57
2022-09-23T17:03:31.512Z,5.40
2022-09-23T17:05:58.520Z,6.13
2022-09-23T17:08:25.323Z,5.45
2022-09-23T17:10:58.583Z,6.95
2022-09-23T17:13:27.362Z,6.38
2022-09-23T17:15:54.983Z,31.13
2022-09-23T17:18:21.869Z,13.88
2022-09-23T17:21:04.347Z,6.13
2022-09-23T17:23:32.276Z,5.10
2022-09-23T17:25:59.961Z,7.40
2022-09-23T17:28:27.180Z,6.20
2022-09-23T17:30:58.829Z,5.97
2022-09-23T17:33:27.149Z,4.32
2022-09-23T17:35:54.538Z,5.60
2022-09-23T17:38:28.077Z,6.28
2022-09-23T17:40:59.124Z,6.35
2022-09-23T17:43:39.232Z,5.53
2022-09-23T17:46:08.727Z,5.53
2022-09-23T17:48:37.921Z,4.85
2022-09-23T17:51:06.418Z,5.03
2022-09-23T17:53:35.745Z,5.45
2022-09-23T17:56:10.891Z,5.47
2022-09-23T17:58:38.130Z,6.93
2022-09-23T18:01:08.734Z,4.97
2022-09-23T18:03:35.599Z,6.68
2022-09-23T18:06:14.206Z,4.85
2022-09-23T18:08:42.976Z,6.45
2022-09-23T18:11:23.483Z,5.00
2022-09-23T18:13:57.254Z,5.43
2022-09-23T18:16:27.080Z,4.95
2022-09-23T18:18:55.794Z,10.30
2022-09-23T18:21:23.945Z,12.65
2022-09-23T18:23:50.827Z,17.88
2022-09-23T18:26:20.024Z,17.33
2022-09-23T18:28:48.089Z,14.63
2022-09-23T18:31:15.771Z,15.95
2022-09-23T18:33:45.804Z,17.30
2022-09-23T18:36:12.560Z,23.52
2022-09-23T18:38:39.891Z,25.08
2022-09-23T18:41:07.200Z,21.27
2022-09-23T18:43:40.050Z,16.40
2022-09-23T18:46:14.801Z,15.63
2022-09-23T18:49:00.794Z,12.93
2022-09-23T18:51:29.275Z,14.45
2022-09-23T18:54:00.444Z,20.77
2022-09-23T18:56:49.350Z,16.33
2022-09-23T18:59:19.560Z,12.68
2022-09-23T19:01:48.463Z,14.20
2022-09-23T19:04:17.919Z,12.02
2022-09-23T19:06:45.170Z,13.05
2022-09-23T19:09:12.282Z,9.73
2022-09-23T19:11:39.103Z,20.13
2022-09-23T19:14:10.876Z,20.25
2022-09-23T19:16:39.105Z,17.05
2022-09-23T19:19:06.337Z,14.73
2022-09-23T19:21:33.529Z,17.77
2022-09-23T19:24:05.686Z,17.63
2022-09-23T19:26:36.666Z,19.70
2022-09-23T19:29:04.878Z,14.73
2022-09-23T19:31:39.122Z,12.73
2022-09-23T19:34:17.749Z,12.52
2022-09-23T19:36:45.916Z,10.80
2022-09-23T19:39:21.081Z,13.63
2022-09-23T19:41:48.637Z,12.35
2022-09-23T19:44:16.467Z,11.98
2022-09-23T19:46:45.418Z,13.80
2022-09-23T19:49:13.064Z,20.85
2022-09-23T19:51:40.126Z,22.30
2022-09-23T19:54:08.343Z,16.33
2022-09-23T19:56:35.935Z,16.40
2022-09-23T19:59:04.599Z,12.90
2022-09-23T20:01:32.108Z,12.68
2022-09-23T20:03:59.369Z,15.45
2022-09-23T20:06:30.379Z,12.45
2022-09-23T20:08:59.476Z,13.27
2022-09-23T20:11:28.531Z,13.52
2022-09-23T20:14:02.167Z,14.20
2022-09-23T20:16:35.037Z,10.70
2022-09-23T20:19:02.881Z,10.63
2022-09-23T20:21:30.234Z,10.63
2022-09-23T20:23:58.004Z,11.23
2022-09-23T20:26:43.832Z,9.52
2022-09-23T20:29:11.279Z,12.43
2022-09-23T20:31:40.456Z,8.50
2022-09-23T20:34:08.193Z,8.90
2022-09-23T20:36:36.227Z,9.48
2022-09-23T20:39:06.068Z,13.40
2022-09-23T20:41:37.128Z,11.15
2022-09-23T20:44:07.033Z,8.10
2022-09-23T20:46:34.304Z,12.38
2022-09-23T20:49:01.956Z,8.10
2022-09-23T20:51:29.091Z,9.38
2022-09-23T20:53:55.847Z,6.30
2022-09-23T20:56:23.053Z,8.77
2022-09-23T20:58:50.912Z,6.90
2022-09-23T21:01:18.318Z,7.45
2022-09-23T21:03:47.869Z,8.20
2022-09-23T21:06:16.485Z,8.20
2022-09-23T21:08:46.679Z,9.75
2022-09-23T21:11:15.903Z,7.28
2022-09-23T21:13:47.218Z,9.02
2022-09-23T21:16:18.223Z,10.13
2022-09-23T21:18:46.790Z,9.77
2022-09-23T21:21:19.259Z,10.15
2022-09-23T21:23:46.685Z,11.60
2022-09-23T21:26:24.725Z,11.82
2022-09-23T21:28:57.150Z,26.05
2022-09-23T21:31:33.873Z,22.05
2022-09-23T21:34:03.139Z,14.57
2022-09-23T21:36:32.724Z,16.80
2022-09-23T21:39:01.722Z,27.92
2022-09-23T21:41:28.830Z,24.35
2022-09-23T21:43:56.321Z,19.58
2022-09-23T21:46:24.518Z,20.00
2022-09-23T21:48:53.375Z,18.55
2022-09-23T21:51:47.679Z,15.57
2022-09-23T21:54:16.021Z,13.07
2022-09-23T21:56:43.696Z,12.70
2022-09-23T21:59:10.841Z,13.23
2022-09-23T22:01:41.480Z,12.32
2022-09-23T22:04:14.994Z,12.75
2022-09-23T22:06:41.911Z,11.82
2022-09-23T22:09:12.671Z,12.30
2022-09-23T22:11:58.805Z,12.82
2022-09-23T22:14:26.472Z,10.13
2022-09-23T22:16:57.289Z,11.07
2022-09-23T22:19:27.167Z,12.73
2022-09-23T22:21:55.837Z,12.82
2022-09-23T22:24:22.858Z,12.98
2022-09-23T22:26:50.110Z,17.58
2022-09-23T22:29:36.024Z,12.95
2022-09-23T22:32:22.941Z,13.40
2022-09-23T22:34:51.946Z,15.88
2022-09-23T22:37:21.795Z,9.35
2022-09-23T22:39:48.566Z,12.80
2022-09-23T22:42:15.486Z,10.85
2022-09-23T22:44:42.561Z,10.52
2022-09-23T22:47:10.484Z,11.32
2022-09-23T22:49:37.326Z,11.30
2022-09-23T22:52:09.452Z,13.15
2022-09-23T22:54:36.482Z,12.52
2022-09-23T22:57:09.633Z,9.10
2022-09-23T22:59:37.592Z,11.05
2022-09-23T23:02:07.105Z,8.82
2022-09-23T23:04:33.969Z,8.80
2022-09-23T23:07:00.723Z,9.15
2022-09-23T23:09:27.508Z,10.80
2022-09-23T23:11:54.646Z,10.65
2022-09-23T23:14:21.468Z,14.90
2022-09-23T23:16:48.483Z,11.23
2022-09-23T23:19:17.435Z,9.25
2022-09-23T23:21:45.450Z,10.60
2022-09-23T23:24:21.689Z,10.00
2022-09-23T23:26:49.513Z,13.38
2022-09-23T23:29:17.727Z,11.05
2022-09-23T23:31:44.753Z,8.82
2022-09-23T23:34:13.831Z,11.10
2022-09-23T23:36:41.461Z,9.23
2022-09-23T23:39:08.734Z,8.50
2022-09-23T23:41:35.863Z,12.48
2022-09-23T23:44:02.795Z,21.83
2022-09-23T23:46:31.144Z,24.55
2022-09-23T23:48:58.770Z,11.88
2022-09-23T23:51:26.882Z,14.55
2022-09-23T23:53:55.775Z,8.23
2022-09-23T23:56:24.544Z,10.77
2022-09-23T23:59:00.029Z,8.75
